createdAt,value
2018-03-01T00:00:02.680Z,45.73
2018-03-01T00:02:31.777Z,46.77
2018-03-01T00:05:01.070Z,53.57
2018-03-01T00:07:30.182Z,47.47
2018-03-01T00:10:00.074Z,52.57
2018-03-01T00:12:29.199Z,48.80
2018-03-01T00:14:58.291Z,49.17
2018-03-01T00:17:27.413Z,50.93
2018-03-01T00:19:57.290Z,49.27
2018-03-01T00:22:37.169Z,50.80
2018-03-01T00:25:08.061Z,43.63
2018-03-01T00:27:37.222Z,56.53
2018-03-01T00:30:06.293Z,55.50
2018-03-01T00:32:36.183Z,45.83
2018-03-01T00:35:05.283Z,49.00
2018-03-01T00:37:34.406Z,40.17
2018-03-01T00:40:04.266Z,49.17
2018-03-01T00:42:33.392Z,46.27
2018-03-01T00:45:02.502Z,39.80
2018-03-01T00:47:32.391Z,44.67
2018-03-01T00:50:01.488Z,58.30
2018-03-01T00:52:32.133Z,47.67
2018-03-01T00:55:01.221Z,56.27
2018-03-01T00:57:30.322Z,54.17
2018-03-01T00:59:59.455Z,43.67
2018-03-01T01:02:28.558Z,50.17
2018-03-01T01:04:57.678Z,44.30
2018-03-01T01:07:26.783Z,38.63
2018-03-01T01:09:55.898Z,53.33
2018-03-01T01:12:25.004Z,49.70
2018-03-01T01:14:54.124Z,54.93
2018-03-01T01:17:23.982Z,48.67
2018-03-01T01:19:53.095Z,56.20
2018-03-01T01:22:22.225Z,45.07
2018-03-01T01:24:52.086Z,51.23
2018-03-01T01:27:21.215Z,46.03
2018-03-01T01:29:50.310Z,46.50
2018-03-01T01:32:20.211Z,47.23
2018-03-01T01:34:50.818Z,49.17
2018-03-01T01:37:19.945Z,44.60
2018-03-01T01:39:49.043Z,48.37
2018-03-01T01:42:19.271Z,49.67
2018-03-01T01:44:48.362Z,44.87
2018-03-01T01:47:17.498Z,51.03
2018-03-01T01:49:46.598Z,53.37
2018-03-01T01:52:15.701Z,52.10
2018-03-01T01:54:44.814Z,43.73
2018-03-01T01:57:13.940Z,53.53
2018-03-01T01:59:43.054Z,49.77
2018-03-01T02:02:12.941Z,51.53
2018-03-01T02:04:42.042Z,49.67
2018-03-01T02:07:11.155Z,52.13
2018-03-01T02:09:40.281Z,55.50
2018-03-01T02:12:09.395Z,50.00
2018-03-01T02:14:38.509Z,51.40
2018-03-01T02:17:07.597Z,45.67
2018-03-01T02:19:36.718Z,33.17
2018-03-01T02:22:05.809Z,40.40
2018-03-01T02:24:34.914Z,45.97
2018-03-01T02:27:04.031Z,49.03
2018-03-01T02:29:33.918Z,49.90
2018-03-01T02:32:03.021Z,51.10
2018-03-01T02:34:32.147Z,45.73
2018-03-01T02:37:02.022Z,47.57
2018-03-01T02:39:31.110Z,46.20
2018-03-01T02:42:00.226Z,44.90
2018-03-01T02:44:29.319Z,46.20
2018-03-01T02:46:58.458Z,49.23
2018-03-01T02:49:28.311Z,40.23
2018-03-01T02:51:57.412Z,54.80
2018-03-01T02:54:27.271Z,41.03
2018-03-01T02:56:57.154Z,46.17
2018-03-01T02:59:26.245Z,41.17
2018-03-01T03:01:55.358Z,47.23
2018-03-01T03:04:24.493Z,44.03
2018-03-01T03:06:53.608Z,51.57
2018-03-01T03:09:23.489Z,42.70
2018-03-01T03:11:53.352Z,49.47
2018-03-01T03:14:22.452Z,45.73
2018-03-01T03:16:51.559Z,46.03
2018-03-01T03:19:20.690Z,54.07
2018-03-01T03:21:50.561Z,37.90
2018-03-01T03:24:19.669Z,43.63
2018-03-01T03:26:48.782Z,45.57
2018-03-01T03:29:17.893Z,46.97
2018-03-01T03:31:47.798Z,57.80
2018-03-01T03:34:16.874Z,40.73
2018-03-01T03:36:45.978Z,45.70
2018-03-01T03:39:15.087Z,50.03
2018-03-01T03:41:44.956Z,47.40
2018-03-01T03:44:14.071Z,47.37
2018-03-01T03:46:44.693Z,51.13
2018-03-01T03:49:13.790Z,46.63
2018-03-01T03:51:42.914Z,42.63
2018-03-01T03:54:12.791Z,41.17
2018-03-01T03:56:41.902Z,46.27
2018-03-01T03:59:11.004Z,55.53
2018-03-01T04:01:40.130Z,36.67
2018-03-01T04:04:09.236Z,46.10
2018-03-01T04:06:38.350Z,44.63
2018-03-01T04:09:07.454Z,45.30
2018-03-01T04:11:36.563Z,45.87
2018-03-01T04:14:05.673Z,37.90
2018-03-01T04:16:34.794Z,50.80
2018-03-01T04:19:03.894Z,36.13
2018-03-01T04:21:32.994Z,41.20
2018-03-01T04:24:02.869Z,44.03
2018-03-01T04:26:32.001Z,52.13
2018-03-01T04:29:01.879Z,45.07
2018-03-01T04:31:30.967Z,42.83
2018-03-01T04:34:00.083Z,43.23
2018-03-01T04:36:29.192Z,36.10
2018-03-01T04:38:58.309Z,42.63
2018-03-01T04:41:27.417Z,53.13
2018-03-01T04:43:56.521Z,43.20
2018-03-01T04:46:25.639Z,40.97
2018-03-01T04:48:54.746Z,46.70
2018-03-01T04:51:23.880Z,42.50
2018-03-01T04:53:53.755Z,36.60
2018-03-01T04:56:22.850Z,44.67
2018-03-01T04:58:51.967Z,53.63
2018-03-01T05:01:21.080Z,40.63
2018-03-01T05:03:50.945Z,45.03
2018-03-01T05:06:20.066Z,36.17
2018-03-01T05:08:49.146Z,51.07
2018-03-01T05:11:19.036Z,40.60
2018-03-01T05:13:48.157Z,41.77
2018-03-01T05:16:17.264Z,41.27
2018-03-01T05:18:46.386Z,43.70
2018-03-01T05:21:15.474Z,40.83
2018-03-01T05:23:44.595Z,38.70
2018-03-01T05:26:14.454Z,42.33
2018-03-01T05:28:43.577Z,37.27
2018-03-01T05:31:12.678Z,42.87
2018-03-01T05:33:41.791Z,42.53
2018-03-01T05:36:11.644Z,56.93
2018-03-01T05:38:40.754Z,52.60
2018-03-01T05:41:09.857Z,45.33
2018-03-01T05:43:38.962Z,38.57
2018-03-01T05:46:08.075Z,44.30
2018-03-01T05:48:37.164Z,44.13
2018-03-01T05:51:06.293Z,49.90
2018-03-01T05:53:36.145Z,51.07
2018-03-01T05:56:05.277Z,49.43
2018-03-01T05:58:35.146Z,40.90
2018-03-01T06:01:04.277Z,38.53
2018-03-01T06:03:33.388Z,45.70
2018-03-01T06:06:02.550Z,38.10
2018-03-01T06:08:31.641Z,41.90
2018-03-01T06:11:00.754Z,39.30
2018-03-01T06:13:31.362Z,37.80
2018-03-01T06:16:00.474Z,42.50
2018-03-01T06:18:29.575Z,37.10
2018-03-01T06:20:58.690Z,41.90
2018-03-01T06:23:28.652Z,40.53
2018-03-01T06:25:57.745Z,39.93
2018-03-01T06:28:26.862Z,41.23
2018-03-01T06:30:55.943Z,43.00
2018-03-01T06:33:25.070Z,44.17
2018-03-01T06:35:54.159Z,42.53
2018-03-01T06:38:23.297Z,43.10
2018-03-01T06:40:52.408Z,46.10
2018-03-01T06:43:22.263Z,45.87
2018-03-01T06:45:51.380Z,50.10
2018-03-01T06:48:20.504Z,36.60
2018-03-01T06:50:50.390Z,43.50
2018-03-01T06:53:19.487Z,44.80
2018-03-01T06:55:48.616Z,43.50
2018-03-01T06:58:18.515Z,43.03
2018-03-01T07:00:47.617Z,43.83
2018-03-01T07:03:16.730Z,40.43
2018-03-01T07:05:45.861Z,48.87
2018-03-01T07:08:14.932Z,45.63
2018-03-01T07:10:44.043Z,48.80
2018-03-01T07:13:13.161Z,41.70
2018-03-01T07:15:42.262Z,42.33
2018-03-01T07:18:11.369Z,43.90
2018-03-01T07:20:40.476Z,43.20
2018-03-01T07:23:09.602Z,40.07
2018-03-01T07:25:38.690Z,44.37
2018-03-01T07:28:07.789Z,44.90
2018-03-01T07:30:37.670Z,41.00
2018-03-01T07:33:06.786Z,42.13
2018-03-01T07:35:35.898Z,44.77
2018-03-01T07:38:04.983Z,41.50
2018-03-01T07:40:34.878Z,43.57
2018-03-01T07:43:03.984Z,43.00
2018-03-01T07:45:33.885Z,43.07
2018-03-01T07:48:02.984Z,53.40
2018-03-01T07:50:32.094Z,40.33
2018-03-01T07:53:02.032Z,77.47
2018-03-01T07:55:31.883Z,74.93
2018-03-01T07:58:00.990Z,42.50
2018-03-01T08:00:30.079Z,49.13
2018-03-01T08:02:59.265Z,53.30
2018-03-01T08:05:29.099Z,42.03
2018-03-01T08:07:58.958Z,53.33
2018-03-01T08:10:28.091Z,50.83
2018-03-01T08:12:57.194Z,52.20
2018-03-01T08:15:27.095Z,52.13
2018-03-01T08:17:56.193Z,55.67
2018-03-01T08:20:25.318Z,62.33
2018-03-01T08:22:54.417Z,60.43
2018-03-01T08:25:23.600Z,76.13
2018-03-01T08:27:52.678Z,63.23
2018-03-01T08:30:21.802Z,54.87
2018-03-01T08:32:50.911Z,50.90
2018-03-01T08:35:20.006Z,43.50
2018-03-01T08:37:49.105Z,48.37
2018-03-01T08:40:18.974Z,49.67
2018-03-01T08:42:48.136Z,42.63
2018-03-01T08:45:17.208Z,48.90
2018-03-01T08:47:46.325Z,40.87
2018-03-01T08:50:16.178Z,60.00
2018-03-01T08:52:45.274Z,42.30
2018-03-01T08:55:14.419Z,40.60
2018-03-01T08:57:43.527Z,41.03
2018-03-01T09:00:13.405Z,43.47
2018-03-01T09:02:42.509Z,44.97
2018-03-01T09:05:11.620Z,43.37
2018-03-01T09:07:41.481Z,53.83
2018-03-01T09:10:10.607Z,39.00
2018-03-01T09:12:39.708Z,42.47
2018-03-01T09:15:08.842Z,44.40
2018-03-01T09:17:37.931Z,45.47
2018-03-01T09:20:07.810Z,48.40
2018-03-01T09:22:36.906Z,36.57
2018-03-01T09:25:06.004Z,59.60
2018-03-01T09:27:35.148Z,50.73
2018-03-01T09:30:04.249Z,45.13
2018-03-01T09:32:33.757Z,50.40
2018-03-01T09:35:02.874Z,38.77
2018-03-01T09:37:31.997Z,52.00
2018-03-01T09:40:01.117Z,46.67
2018-03-01T09:42:30.999Z,50.70
2018-03-01T09:45:00.124Z,42.17
2018-03-01T09:47:30.002Z,42.33
2018-03-01T09:49:59.096Z,38.87
2018-03-01T09:52:28.230Z,46.43
2018-03-01T09:54:58.125Z,55.20
2018-03-01T09:57:27.238Z,47.27
2018-03-01T09:59:57.126Z,66.17
2018-03-01T10:02:26.219Z,46.47
2018-03-01T10:04:55.336Z,44.20
2018-03-01T10:07:24.471Z,50.43
2018-03-01T10:09:53.555Z,61.07
2018-03-01T10:12:22.671Z,55.30
2018-03-01T10:14:51.774Z,51.20
2018-03-01T10:17:20.914Z,55.03
2018-03-01T10:19:50.035Z,48.50
2018-03-01T10:22:19.921Z,52.17
2018-03-01T10:24:49.043Z,47.60
2018-03-01T10:27:18.921Z,43.90
2018-03-01T10:29:48.023Z,43.30
2018-03-01T10:32:17.144Z,52.50
2018-03-01T10:34:47.066Z,51.37
2018-03-01T10:37:16.949Z,53.43
2018-03-01T10:39:46.091Z,48.93
2018-03-01T10:42:15.217Z,52.30
2018-03-01T10:44:44.331Z,49.33
2018-03-01T10:47:13.423Z,44.90
2018-03-01T10:49:42.544Z,42.80
2018-03-01T10:52:11.651Z,42.93
2018-03-01T10:54:41.524Z,40.77
2018-03-01T10:57:10.635Z,47.13
2018-03-01T10:59:39.798Z,47.03
2018-03-01T11:02:09.649Z,45.87
2018-03-01T11:04:38.768Z,44.93
2018-03-01T11:07:07.846Z,46.67
2018-03-01T11:09:36.951Z,42.93
2018-03-01T11:12:06.102Z,51.77
2018-03-01T11:14:35.171Z,56.77
2018-03-01T11:17:04.257Z,47.77
2018-03-01T11:19:34.128Z,55.03
2018-03-01T11:22:03.229Z,46.87
2018-03-01T11:24:32.322Z,39.63
2018-03-01T11:27:01.435Z,52.50
2018-03-01T11:29:30.511Z,44.50
2018-03-01T11:31:59.635Z,43.93
2018-03-01T11:34:28.739Z,48.67
2018-03-01T11:36:58.622Z,49.77
2018-03-01T11:39:27.715Z,46.30
2018-03-01T11:41:56.874Z,39.03
2018-03-01T11:44:25.927Z,49.07
2018-03-01T11:46:55.051Z,54.30
2018-03-01T11:49:24.919Z,44.00
2018-03-01T11:51:54.022Z,45.80
2018-03-01T11:54:23.118Z,50.37
2018-03-01T11:56:52.226Z,43.23
2018-03-01T11:59:21.339Z,44.20
2018-03-01T12:01:51.205Z,51.03
2018-03-01T12:04:20.319Z,46.70
2018-03-01T12:06:49.426Z,44.40
2018-03-01T12:09:18.547Z,38.33
2018-03-01T12:11:48.404Z,44.80
2018-03-01T12:14:17.512Z,45.03
2018-03-01T12:16:46.618Z,46.97
2018-03-01T12:19:15.720Z,43.37
2018-03-01T12:21:44.809Z,41.67
2018-03-01T12:24:13.907Z,46.47
2018-03-01T12:26:43.023Z,45.30
2018-03-01T12:29:12.107Z,41.77
2018-03-01T12:31:41.227Z,42.63
2018-03-01T12:34:11.063Z,42.60
2018-03-01T12:36:40.166Z,50.53
2018-03-01T12:39:09.267Z,52.63
2018-03-01T12:41:38.368Z,52.20
2018-03-01T12:44:07.454Z,40.77
2018-03-01T12:46:36.571Z,58.27
2018-03-01T12:49:05.673Z,53.67
2018-03-01T12:51:34.790Z,51.47
2018-03-01T12:54:03.892Z,47.23
2018-03-01T12:56:33.005Z,41.00
2018-03-01T12:59:02.855Z,46.17
2018-03-01T13:01:31.956Z,45.93
2018-03-01T13:04:01.380Z,45.40
2018-03-01T13:06:30.509Z,41.23
2018-03-01T13:09:00.421Z,43.57
2018-03-01T13:11:30.283Z,46.70
2018-03-01T13:13:59.394Z,51.87
2018-03-01T13:16:28.488Z,48.70
2018-03-01T13:18:57.583Z,49.10
2018-03-01T13:21:26.662Z,57.43
2018-03-01T13:23:55.762Z,45.20
2018-03-01T13:26:24.870Z,53.43
2018-03-01T13:28:53.986Z,45.87
2018-03-01T13:31:23.081Z,44.60
2018-03-01T13:33:53.975Z,48.07
2018-03-01T13:36:23.047Z,51.03
2018-03-01T13:38:52.161Z,45.27
2018-03-01T13:41:21.281Z,45.80
2018-03-01T13:43:50.369Z,45.80
2018-03-01T13:59:40.869Z,56.10
2018-03-01T14:02:09.973Z,47.50
2018-03-01T14:04:39.077Z,49.00
2018-03-01T14:20:56.415Z,49.80
2018-03-01T14:23:31.842Z,51.70
2018-03-01T14:26:04.462Z,49.43
2018-03-01T14:28:36.995Z,44.87
2018-03-01T14:31:06.094Z,46.13
2018-03-01T14:33:35.194Z,48.00
2018-03-01T14:36:04.308Z,47.23
2018-03-01T14:38:34.186Z,39.57
2018-03-01T14:41:03.298Z,37.63
2018-03-01T14:43:32.374Z,56.03
2018-03-01T14:46:01.485Z,45.37
2018-03-01T14:48:30.607Z,42.63
2018-03-01T14:51:00.474Z,44.80
2018-03-01T14:53:29.590Z,40.57
2018-03-01T14:55:59.655Z,44.37
2018-03-01T14:58:29.513Z,34.67
2018-03-01T15:00:58.649Z,49.40
2018-03-01T15:03:28.498Z,44.40
2018-03-01T15:05:57.601Z,38.57
2018-03-01T15:08:26.711Z,48.03
2018-03-01T15:10:55.878Z,46.13
2018-03-01T15:13:24.959Z,47.40
2018-03-01T15:15:54.084Z,49.40
2018-03-01T15:18:23.204Z,49.90
2018-03-01T15:20:52.291Z,43.23
2018-03-01T15:23:21.429Z,46.30
2018-03-01T15:25:50.561Z,49.20
2018-03-01T15:28:19.658Z,45.30
2018-03-01T15:30:48.806Z,39.30
2018-03-01T15:33:19.416Z,46.60
2018-03-01T15:35:48.516Z,45.63
2018-03-01T15:38:17.614Z,39.17
2018-03-01T15:40:46.732Z,45.83
2018-03-01T15:43:16.595Z,38.97
2018-03-01T15:45:45.730Z,42.97
2018-03-01T15:48:14.826Z,43.50
2018-03-01T15:50:43.941Z,46.47
2018-03-01T15:53:13.035Z,38.03
2018-03-01T15:55:42.118Z,42.07
2018-03-01T15:58:11.261Z,40.90
2018-03-01T16:00:40.391Z,45.23
2018-03-01T16:03:09.505Z,41.10
2018-03-01T16:05:38.594Z,46.13
2018-03-01T16:08:07.707Z,40.50
2018-03-01T16:10:36.807Z,53.30
2018-03-01T16:13:06.714Z,43.53
2018-03-01T16:15:35.824Z,45.40
2018-03-01T16:18:05.732Z,45.17
2018-03-01T16:20:34.824Z,43.60
2018-03-01T16:23:03.941Z,36.67
2018-03-01T16:25:33.806Z,36.30
2018-03-01T16:28:02.911Z,41.47
2018-03-01T16:30:32.045Z,36.83
2018-03-01T16:33:01.953Z,41.30
2018-03-01T16:35:31.840Z,47.60
2018-03-01T16:38:00.962Z,36.30
2018-03-01T16:40:30.059Z,40.93
2018-03-01T16:42:59.938Z,41.23
2018-03-01T16:45:29.058Z,39.03
2018-03-01T16:47:58.188Z,47.70
2018-03-01T16:50:27.304Z,53.60
2018-03-01T16:52:56.403Z,40.47
2018-03-01T16:55:25.500Z,44.23
2018-03-01T16:57:54.587Z,40.83
2018-03-01T17:00:23.706Z,42.87
2018-03-01T17:02:52.834Z,43.10
2018-03-01T17:05:21.927Z,56.03
2018-03-01T17:07:51.795Z,45.47
2018-03-01T17:10:20.952Z,49.90
2018-03-01T17:12:50.798Z,43.03
2018-03-01T17:15:19.908Z,49.40
2018-03-01T17:17:48.998Z,46.27
2018-03-01T17:20:18.136Z,44.17
2018-03-01T17:22:47.315Z,48.53
2018-03-01T17:25:16.379Z,43.60
2018-03-01T17:27:46.241Z,43.47
2018-03-01T17:30:15.360Z,44.73
2018-03-01T17:32:45.242Z,47.03
2018-03-01T17:35:14.360Z,56.20
2018-03-01T17:37:43.482Z,50.70
2018-03-01T17:40:12.590Z,57.43
2018-03-01T17:42:41.674Z,44.80
2018-03-01T17:45:10.819Z,50.40
2018-03-01T17:47:40.625Z,54.00
2018-03-01T17:50:09.738Z,53.80
2018-03-01T17:52:38.842Z,48.83
2018-03-01T17:55:08.724Z,45.20
2018-03-01T17:57:37.833Z,50.80
2018-03-01T18:00:06.930Z,66.17
2018-03-01T18:02:36.048Z,47.70
2018-03-01T18:05:05.142Z,55.27
2018-03-01T18:07:34.299Z,51.23
2018-03-01T18:10:04.161Z,51.57
2018-03-01T18:12:34.054Z,51.23
2018-03-01T18:15:03.161Z,50.10
2018-03-01T18:17:32.266Z,42.83
2018-03-01T18:20:01.369Z,39.80
2018-03-01T18:22:31.236Z,59.73
2018-03-01T18:25:00.347Z,57.90
2018-03-01T18:27:29.465Z,56.63
2018-03-01T18:29:58.571Z,46.30
2018-03-01T18:32:28.475Z,54.90
2018-03-01T18:34:57.572Z,49.50
2018-03-01T18:37:27.456Z,57.03
2018-03-01T18:39:56.582Z,50.60
2018-03-01T18:42:26.438Z,61.07
2018-03-01T18:44:55.533Z,51.00
2018-03-01T18:47:25.419Z,57.33
2018-03-01T18:49:55.284Z,56.40
2018-03-01T18:52:24.410Z,50.00
2018-03-01T18:54:55.011Z,50.80
2018-03-01T18:57:24.135Z,48.30
2018-03-01T18:59:54.060Z,53.30
2018-03-01T19:02:23.160Z,55.40
2018-03-01T19:04:53.045Z,44.10
2018-03-01T19:07:22.188Z,52.23
2018-03-01T19:09:52.065Z,54.17
2018-03-01T19:12:21.187Z,42.93
2018-03-01T19:14:51.037Z,50.17
2018-03-01T19:17:20.162Z,54.20
2018-03-01T19:19:49.280Z,50.00
2018-03-01T19:22:18.428Z,51.13
2018-03-01T19:24:47.538Z,52.47
2018-03-01T19:27:16.642Z,65.63
2018-03-01T19:29:45.793Z,54.00
2018-03-01T19:32:15.668Z,53.77
2018-03-01T19:34:46.317Z,47.00
2018-03-01T19:37:15.392Z,56.23
2018-03-01T19:39:44.546Z,52.70
2018-03-01T19:42:14.412Z,50.63
2018-03-01T19:44:43.507Z,48.83
2018-03-01T19:47:12.607Z,52.23
2018-03-01T19:49:42.495Z,52.83
2018-03-01T19:52:11.611Z,54.17
2018-03-01T19:54:40.757Z,54.57
2018-03-01T19:57:09.860Z,51.17
2018-03-01T19:59:38.954Z,51.30
2018-03-01T20:02:08.090Z,48.53
2018-03-01T20:04:37.194Z,51.63
2018-03-01T20:07:06.329Z,60.07
2018-03-01T20:09:35.417Z,62.73
2018-03-01T20:12:05.267Z,47.73
2018-03-01T20:14:34.417Z,58.87
2018-03-01T20:17:04.296Z,57.80
2018-03-01T20:19:33.420Z,60.73
2018-03-01T20:22:02.517Z,54.33
2018-03-01T20:24:32.406Z,53.27
2018-03-01T20:27:01.478Z,53.90
2018-03-01T20:29:30.626Z,51.33
2018-03-01T20:32:00.503Z,47.67
2018-03-01T20:34:29.633Z,52.97
2018-03-01T20:36:58.724Z,60.33
2018-03-01T20:39:27.884Z,54.20
2018-03-01T20:41:56.969Z,53.23
2018-03-01T20:44:26.115Z,52.67
2018-03-01T20:46:55.249Z,59.53
2018-03-01T20:49:24.416Z,60.27
2018-03-01T20:51:53.573Z,69.40
2018-03-01T20:54:22.671Z,63.27
2018-03-01T20:56:51.788Z,59.03
2018-03-01T20:59:20.884Z,55.23
2018-03-01T21:01:50.050Z,59.53
2018-03-01T21:04:19.149Z,59.03
2018-03-01T21:06:48.268Z,55.03
2018-03-01T21:09:17.394Z,63.37
2018-03-01T21:11:47.296Z,84.77
2018-03-01T21:14:17.174Z,71.77
2018-03-01T21:16:46.318Z,71.10
2018-03-01T21:19:16.177Z,61.53
2018-03-01T21:21:45.323Z,57.73
2018-03-01T21:24:15.205Z,63.00
2018-03-01T21:26:44.327Z,60.83
2018-03-01T21:29:13.446Z,58.73
2018-03-01T21:31:42.575Z,61.60
2018-03-01T21:34:11.696Z,69.07
2018-03-01T21:36:40.821Z,55.30
2018-03-01T21:39:10.722Z,57.43
2018-03-01T21:41:39.840Z,67.40
2018-03-01T21:44:09.718Z,59.50
2018-03-01T21:46:38.822Z,56.20
2018-03-01T21:49:07.950Z,59.00
2018-03-01T21:51:37.048Z,71.20
2018-03-01T21:54:06.927Z,53.53
2018-03-01T21:56:36.035Z,60.43
2018-03-01T21:59:05.899Z,64.53
2018-03-01T22:01:35.050Z,61.93
2018-03-01T22:04:04.146Z,59.80
2018-03-01T22:06:34.012Z,61.73
2018-03-01T22:09:03.108Z,64.50
2018-03-01T22:11:32.266Z,58.77
2018-03-01T22:14:02.144Z,52.43
2018-03-01T22:16:31.235Z,61.57
2018-03-01T22:19:00.346Z,56.60
2018-03-01T22:21:29.452Z,57.33
2018-03-01T22:23:58.572Z,68.60
2018-03-01T22:26:27.685Z,57.43
2018-03-01T22:28:58.630Z,63.30
2018-03-01T22:31:27.734Z,59.40
2018-03-01T22:33:56.843Z,56.10
2018-03-01T22:36:25.937Z,59.73
2018-03-01T22:38:55.043Z,64.40
2018-03-01T22:41:24.137Z,64.93
2018-03-01T22:43:53.260Z,58.07
2018-03-01T22:46:22.373Z,62.23
2018-03-01T22:48:52.225Z,65.97
2018-03-01T22:51:21.356Z,62.27
2018-03-01T22:53:50.452Z,62.50
2018-03-01T22:56:19.563Z,58.50
2018-03-01T22:58:49.429Z,72.43
2018-03-01T23:01:18.780Z,63.80
2018-03-01T23:03:47.864Z,70.17
2018-03-01T23:06:16.993Z,66.73
2018-03-01T23:08:47.291Z,67.73
2018-03-01T23:11:16.643Z,63.27
2018-03-01T23:13:45.802Z,66.57
2018-03-01T23:16:15.739Z,62.33
2018-03-01T23:18:44.858Z,61.07
2018-03-01T23:21:13.956Z,67.70
2018-03-01T23:23:43.062Z,69.90
2018-03-01T23:26:12.167Z,71.40
2018-03-01T23:28:41.284Z,88.27
2018-03-01T23:31:11.193Z,87.33
2018-03-01T23:33:40.308Z,69.67
2018-03-01T23:36:09.444Z,83.53
2018-03-01T23:38:38.579Z,78.40
2018-03-01T23:41:07.674Z,87.30
2018-03-01T23:43:36.761Z,78.03
2018-03-01T23:46:05.882Z,78.50
2018-03-01T23:48:35.746Z,63.27
2018-03-01T23:51:04.849Z,78.60
2018-03-01T23:53:33.960Z,75.37
2018-03-01T23:56:03.053Z,66.80
2018-03-01T23:58:32.170Z,65.70
